Terminal Aerodrome Forecast
Issued by NWS

Home | Current Version | Previous Version | Text Only | Print | Product List | Glossary On
Versions: 1 2 3 4 5 6 7 8 9 10 11 12
942
FTUS45 KRIW 262327
TAFCPR
TAF
KCPR 262327Z 2700/2724 03007KT P6SM SCT100
     FM270100 06009KT P6SM VCSH SCT090 BKN150
     FM271400 VRB06KT P6SM SCT070
     FM272000 06008KT P6SM VCSH SCT080 BKN150=

USA.gov is the U.S. government's official web portal to all federal, state and local government web resources and services.